sensor_id;sensor_type;location;lat;lon;timestamp;P1;durP1;ratioP1;P2;durP2;ratioP2
52790;SDS011;41253;46.856;-71.574;2022-08-23T00:01:51;16.58;;;13.43;;
52790;SDS011;41253;46.856;-71.574;2022-08-23T00:04:26;15.80;;;12.18;;
52790;SDS011;41253;46.856;-71.574;2022-08-23T00:06:55;12.48;;;11.25;;
52790;SDS011;41253;46.856;-71.574;2022-08-23T00:09:23;12.63;;;11.32;;
52790;SDS011;41253;46.856;-71.574;2022-08-23T00:11:52;14.90;;;11.95;;
52790;SDS011;41253;46.856;-71.574;2022-08-23T00:14:28;12.38;;;10.45;;
52790;SDS011;41253;46.856;-71.574;2022-08-23T00:16:57;15.43;;;13.82;;
52790;SDS011;41253;46.856;-71.574;2022-08-23T00:19:25;16.35;;;14.68;;
52790;SDS011;41253;46.856;-71.574;2022-08-23T00:21:52;15.30;;;13.23;;
52790;SDS011;41253;46.856;-71.574;2022-08-23T00:24:20;17.52;;;14.52;;
52790;SDS011;41253;46.856;-71.574;2022-08-23T00:29:24;20.58;;;13.85;;
52790;SDS011;41253;46.856;-71.574;2022-08-23T00:32:25;20.02;;;15.30;;
52790;SDS011;41253;46.856;-71.574;2022-08-23T00:34:54;17.55;;;13.80;;
52790;SDS011;41253;46.856;-71.574;2022-08-23T00:37:22;19.00;;;14.93;;
52790;SDS011;41253;46.856;-71.574;2022-08-23T00:39:49;21.13;;;14.70;;
52790;SDS011;41253;46.856;-71.574;2022-08-23T00:45:36;12.45;;;11.18;;
52790;SDS011;41253;46.856;-71.574;2022-08-23T00:48:22;12.48;;;11.05;;
52790;SDS011;41253;46.856;-71.574;2022-08-23T00:53:26;12.18;;;10.73;;
52790;SDS011;41253;46.856;-71.574;2022-08-23T00:55:58;11.93;;;10.70;;
52790;SDS011;41253;46.856;-71.574;2022-08-23T00:58:28;12.38;;;11.18;;
52790;SDS011;41253;46.856;-71.574;2022-08-23T01:00:55;19.85;;;12.55;;
52790;SDS011;41253;46.856;-71.574;2022-08-23T01:03:25;15.68;;;13.75;;
52790;SDS011;41253;46.856;-71.574;2022-08-23T01:08:23;12.65;;;11.07;;
52790;SDS011;41253;46.856;-71.574;2022-08-23T01:10:53;15.05;;;11.57;;
52790;SDS011;41253;46.856;-71.574;2022-08-23T01:13:35;17.05;;;13.38;;
52790;SDS011;41253;46.856;-71.574;2022-08-23T01:16:21;18.17;;;12.15;;
52790;SDS011;41253;46.856;-71.574;2022-08-23T01:18:58;11.45;;;10.40;;
52790;SDS011;41253;46.856;-71.574;2022-08-23T01:21:32;13.32;;;11.80;;
52790;SDS011;41253;46.856;-71.574;2022-08-23T01:24:30;19.13;;;16.58;;
52790;SDS011;41253;46.856;-71.574;2022-08-23T01:26:57;13.85;;;12.35;;
52790;SDS011;41253;46.856;-71.574;2022-08-23T01:29:25;19.15;;;14.88;;
52790;SDS011;41253;46.856;-71.574;2022-08-23T01:31:51;18.08;;;14.10;;
52790;SDS011;41253;46.856;-71.574;2022-08-23T01:34:18;18.70;;;12.25;;
52790;SDS011;41253;46.856;-71.574;2022-08-23T01:36:50;15.82;;;13.70;;
52790;SDS011;41253;46.856;-71.574;2022-08-23T01:39:17;18.17;;;15.50;;
52790;SDS011;41253;46.856;-71.574;2022-08-23T01:41:43;15.50;;;13.63;;
52790;SDS011;41253;46.856;-71.574;2022-08-23T01:44:10;16.45;;;14.05;;
52790;SDS011;41253;46.856;-71.574;2022-08-23T01:46:37;16.25;;;13.00;;
52790;SDS011;41253;46.856;-71.574;2022-08-23T01:49:07;18.20;;;14.50;;
52790;SDS011;41253;46.856;-71.574;2022-08-23T01:51:33;18.02;;;12.63;;
52790;SDS011;41253;46.856;-71.574;2022-08-23T01:54:00;19.77;;;13.85;;
52790;SDS011;41253;46.856;-71.574;2022-08-23T01:56:26;15.93;;;12.73;;
52790;SDS011;41253;46.856;-71.574;2022-08-23T01:58:53;14.05;;;12.60;;
52790;SDS011;41253;46.856;-71.574;2022-08-23T02:01:20;14.02;;;12.57;;
52790;SDS011;41253;46.856;-71.574;2022-08-23T02:03:46;18.45;;;11.25;;
52790;SDS011;41253;46.856;-71.574;2022-08-23T02:06:13;13.77;;;11.75;;
52790;SDS011;41253;46.856;-71.574;2022-08-23T02:08:40;11.95;;;10.75;;
52790;SDS011;41253;46.856;-71.574;2022-08-23T02:11:25;19.10;;;13.52;;
52790;SDS011;41253;46.856;-71.574;2022-08-23T02:13:55;17.45;;;14.25;;
52790;SDS011;41253;46.856;-71.574;2022-08-23T02:16:24;16.48;;;13.30;;
52790;SDS011;41253;46.856;-71.574;2022-08-23T02:18:55;19.40;;;13.98;;
52790;SDS011;41253;46.856;-71.574;2022-08-23T02:21:22;20.70;;;13.63;;
52790;SDS011;41253;46.856;-71.574;2022-08-23T02:23:49;22.15;;;16.77;;
52790;SDS011;41253;46.856;-71.574;2022-08-23T02:26:18;21.15;;;14.32;;
52790;SDS011;41253;46.856;-71.574;2022-08-23T02:28:45;20.83;;;14.70;;
52790;SDS011;41253;46.856;-71.574;2022-08-23T02:31:14;22.35;;;15.18;;
52790;SDS011;41253;46.856;-71.574;2022-08-23T02:33:40;20.10;;;15.18;;
52790;SDS011;41253;46.856;-71.574;2022-08-23T02:36:07;22.13;;;15.02;;
52790;SDS011;41253;46.856;-71.574;2022-08-23T02:38:34;20.92;;;14.18;;
52790;SDS011;41253;46.856;-71.574;2022-08-23T02:41:00;13.95;;;11.40;;
52790;SDS011;41253;46.856;-71.574;2022-08-23T02:43:27;19.38;;;14.77;;
52790;SDS011;41253;46.856;-71.574;2022-08-23T02:45:53;16.73;;;14.00;;
52790;SDS011;41253;46.856;-71.574;2022-08-23T02:48:20;16.73;;;13.68;;
52790;SDS011;41253;46.856;-71.574;2022-08-23T02:50:46;21.60;;;14.50;;
52790;SDS011;41253;46.856;-71.574;2022-08-23T02:53:15;17.95;;;12.45;;
52790;SDS011;41253;46.856;-71.574;2022-08-23T02:55:45;20.27;;;13.10;;
52790;SDS011;41253;46.856;-71.574;2022-08-23T02:58:12;13.90;;;12.30;;
52790;SDS011;41253;46.856;-71.574;2022-08-23T03:00:39;18.23;;;13.35;;
52790;SDS011;41253;46.856;-71.574;2022-08-23T03:03:05;16.90;;;13.10;;
52790;SDS011;41253;46.856;-71.574;2022-08-23T03:05:32;14.38;;;12.88;;
52790;SDS011;41253;46.856;-71.574;2022-08-23T03:07:58;23.30;;;14.65;;
52790;SDS011;41253;46.856;-71.574;2022-08-23T03:10:24;18.85;;;13.13;;
52790;SDS011;41253;46.856;-71.574;2022-08-23T03:12:51;15.10;;;11.38;;
52790;SDS011;41253;46.856;-71.574;2022-08-23T03:15:17;16.77;;;13.00;;
52790;SDS011;41253;46.856;-71.574;2022-08-23T03:17:44;11.57;;;9.40;;
52790;SDS011;41253;46.856;-71.574;2022-08-23T03:20:10;18.45;;;14.27;;
52790;SDS011;41253;46.856;-71.574;2022-08-23T03:22:37;17.13;;;12.15;;
52790;SDS011;41253;46.856;-71.574;2022-08-23T03:25:03;14.45;;;11.60;;
52790;SDS011;41253;46.856;-71.574;2022-08-23T03:27:31;18.73;;;14.43;;
52790;SDS011;41253;46.856;-71.574;2022-08-23T03:29:57;19.15;;;13.70;;
52790;SDS011;41253;46.856;-71.574;2022-08-23T03:32:24;14.93;;;13.27;;
52790;SDS011;41253;46.856;-71.574;2022-08-23T03:34:50;18.77;;;13.35;;
52790;SDS011;41253;46.856;-71.574;2022-08-23T03:37:17;14.90;;;12.32;;
52790;SDS011;41253;46.856;-71.574;2022-08-23T03:39:44;14.43;;;12.10;;
52790;SDS011;41253;46.856;-71.574;2022-08-23T03:42:11;18.38;;;12.63;;
52790;SDS011;41253;46.856;-71.574;2022-08-23T03:44:37;20.95;;;15.35;;
52790;SDS011;41253;46.856;-71.574;2022-08-23T03:47:04;20.33;;;14.30;;
52790;SDS011;41253;46.856;-71.574;2022-08-23T03:49:30;22.65;;;14.98;;
52790;SDS011;41253;46.856;-71.574;2022-08-23T03:51:57;16.80;;;13.40;;
52790;SDS011;41253;46.856;-71.574;2022-08-23T03:54:25;20.23;;;13.82;;
52790;SDS011;41253;46.856;-71.574;2022-08-23T03:56:59;20.67;;;15.10;;
52790;SDS011;41253;46.856;-71.574;2022-08-23T03:59:28;17.77;;;13.35;;
52790;SDS011;41253;46.856;-71.574;2022-08-23T04:01:56;16.70;;;12.70;;
52790;SDS011;41253;46.856;-71.574;2022-08-23T04:04:22;23.67;;;14.32;;
52790;SDS011;41253;46.856;-71.574;2022-08-23T04:06:49;17.92;;;13.43;;
52790;SDS011;41253;46.856;-71.574;2022-08-23T04:09:15;20.05;;;14.68;;
52790;SDS011;41253;46.856;-71.574;2022-08-23T04:11:42;21.73;;;14.40;;
52790;SDS011;41253;46.856;-71.574;2022-08-23T04:14:09;26.30;;;16.27;;
52790;SDS011;41253;46.856;-71.574;2022-08-23T04:16:37;20.52;;;13.10;;
52790;SDS011;41253;46.856;-71.574;2022-08-23T04:19:08;19.30;;;14.90;;
52790;SDS011;41253;46.856;-71.574;2022-08-23T04:21:40;23.45;;;14.95;;
52790;SDS011;41253;46.856;-71.574;2022-08-23T04:24:09;15.63;;;11.75;;
52790;SDS011;41253;46.856;-71.574;2022-08-23T04:26:36;24.67;;;15.70;;
52790;SDS011;41253;46.856;-71.574;2022-08-23T04:29:02;25.00;;;16.17;;
52790;SDS011;41253;46.856;-71.574;2022-08-23T04:31:29;23.75;;;16.55;;
52790;SDS011;41253;46.856;-71.574;2022-08-23T04:33:57;26.80;;;18.13;;
52790;SDS011;41253;46.856;-71.574;2022-08-23T04:36:24;27.67;;;16.48;;
52790;SDS011;41253;46.856;-71.574;2022-08-23T04:38:51;25.00;;;16.67;;
52790;SDS011;41253;46.856;-71.574;2022-08-23T04:41:17;27.15;;;15.18;;
52790;SDS011;41253;46.856;-71.574;2022-08-23T04:44:02;111.45;;;18.25;;
52790;SDS011;41253;46.856;-71.574;2022-08-23T04:46:29;54.53;;;18.85;;
52790;SDS011;41253;46.856;-71.574;2022-08-23T04:48:56;184.93;;;23.75;;
52790;SDS011;41253;46.856;-71.574;2022-08-23T04:51:23;34.15;;;22.73;;
52790;SDS011;41253;46.856;-71.574;2022-08-23T04:53:50;43.42;;;24.80;;
52790;SDS011;41253;46.856;-71.574;2022-08-23T04:56:16;24.95;;;19.13;;
52790;SDS011;41253;46.856;-71.574;2022-08-23T04:58:42;28.45;;;19.98;;
52790;SDS011;41253;46.856;-71.574;2022-08-23T05:01:09;24.70;;;19.25;;
52790;SDS011;41253;46.856;-71.574;2022-08-23T05:03:36;28.52;;;19.70;;
52790;SDS011;41253;46.856;-71.574;2022-08-23T05:06:03;32.55;;;20.08;;
52790;SDS011;41253;46.856;-71.574;2022-08-23T05:08:30;29.00;;;19.17;;
52790;SDS011;41253;46.856;-71.574;2022-08-23T05:11:01;24.58;;;16.65;;
52790;SDS011;41253;46.856;-71.574;2022-08-23T05:13:28;20.25;;;16.33;;
52790;SDS011;41253;46.856;-71.574;2022-08-23T05:15:55;26.63;;;18.60;;
52790;SDS011;41253;46.856;-71.574;2022-08-23T05:18:22;22.60;;;16.92;;
52790;SDS011;41253;46.856;-71.574;2022-08-23T05:20:50;25.10;;;17.70;;
52790;SDS011;41253;46.856;-71.574;2022-08-23T05:23:16;22.92;;;18.13;;
52790;SDS011;41253;46.856;-71.574;2022-08-23T05:25:43;19.30;;;14.75;;
52790;SDS011;41253;46.856;-71.574;2022-08-23T05:28:16;21.65;;;15.13;;
52790;SDS011;41253;46.856;-71.574;2022-08-23T05:31:00;23.60;;;18.08;;
52790;SDS011;41253;46.856;-71.574;2022-08-23T05:33:31;26.05;;;17.70;;
52790;SDS011;41253;46.856;-71.574;2022-08-23T05:35:59;24.52;;;16.83;;
52790;SDS011;41253;46.856;-71.574;2022-08-23T05:38:26;26.92;;;17.85;;
52790;SDS011;41253;46.856;-71.574;2022-08-23T05:40:53;26.45;;;18.88;;
52790;SDS011;41253;46.856;-71.574;2022-08-23T05:43:22;24.23;;;15.18;;
52790;SDS011;41253;46.856;-71.574;2022-08-23T05:46:03;21.65;;;15.75;;
52790;SDS011;41253;46.856;-71.574;2022-08-23T05:48:31;20.73;;;14.90;;
52790;SDS011;41253;46.856;-71.574;2022-08-23T05:53:46;24.85;;;18.15;;
52790;SDS011;41253;46.856;-71.574;2022-08-23T05:56:16;20.20;;;15.38;;
52790;SDS011;41253;46.856;-71.574;2022-08-23T05:58:46;21.77;;;16.83;;
52790;SDS011;41253;46.856;-71.574;2022-08-23T06:01:13;20.35;;;15.40;;
52790;SDS011;41253;46.856;-71.574;2022-08-23T06:03:41;22.13;;;16.33;;
52790;SDS011;41253;46.856;-71.574;2022-08-23T06:06:08;25.00;;;16.20;;
52790;SDS011;41253;46.856;-71.574;2022-08-23T06:08:37;22.02;;;15.65;;
52790;SDS011;41253;46.856;-71.574;2022-08-23T06:11:06;17.90;;;14.15;;
52790;SDS011;41253;46.856;-71.574;2022-08-23T06:13:37;25.90;;;17.42;;
52790;SDS011;41253;46.856;-71.574;2022-08-23T06:16:13;25.85;;;18.27;;
52790;SDS011;41253;46.856;-71.574;2022-08-23T06:18:42;25.02;;;16.05;;
52790;SDS011;41253;46.856;-71.574;2022-08-23T06:21:11;23.77;;;15.15;;
52790;SDS011;41253;46.856;-71.574;2022-08-23T06:23:38;22.05;;;17.23;;
52790;SDS011;41253;46.856;-71.574;2022-08-23T06:26:12;18.02;;;13.75;;
52790;SDS011;41253;46.856;-71.574;2022-08-23T06:28:41;21.80;;;16.40;;
52790;SDS011;41253;46.856;-71.574;2022-08-23T06:31:09;28.52;;;19.05;;
52790;SDS011;41253;46.856;-71.574;2022-08-23T06:33:36;21.90;;;17.85;;
52790;SDS011;41253;46.856;-71.574;2022-08-23T06:36:06;26.33;;;16.23;;
52790;SDS011;41253;46.856;-71.574;2022-08-23T06:38:37;21.63;;;15.73;;
52790;SDS011;41253;46.856;-71.574;2022-08-23T06:41:07;30.70;;;18.33;;
52790;SDS011;41253;46.856;-71.574;2022-08-23T06:43:36;24.33;;;16.77;;
52790;SDS011;41253;46.856;-71.574;2022-08-23T06:46:22;20.92;;;15.90;;
52790;SDS011;41253;46.856;-71.574;2022-08-23T06:48:51;22.65;;;17.48;;
52790;SDS011;41253;46.856;-71.574;2022-08-23T06:51:24;22.23;;;14.70;;
52790;SDS011;41253;46.856;-71.574;2022-08-23T06:53:56;26.45;;;16.60;;
52790;SDS011;41253;46.856;-71.574;2022-08-23T06:56:24;24.75;;;14.50;;
52790;SDS011;41253;46.856;-71.574;2022-08-23T06:58:52;19.00;;;15.15;;
52790;SDS011;41253;46.856;-71.574;2022-08-23T07:03:58;19.00;;;12.88;;
52790;SDS011;41253;46.856;-71.574;2022-08-23T07:06:26;20.00;;;15.90;;
52790;SDS011;41253;46.856;-71.574;2022-08-23T07:08:53;20.60;;;14.63;;
52790;SDS011;41253;46.856;-71.574;2022-08-23T07:11:21;17.52;;;12.77;;
52790;SDS011;41253;46.856;-71.574;2022-08-23T07:13:48;16.48;;;11.95;;
52790;SDS011;41253;46.856;-71.574;2022-08-23T07:16:14;18.08;;;13.75;;
52790;SDS011;41253;46.856;-71.574;2022-08-23T07:18:45;24.63;;;15.30;;
52790;SDS011;41253;46.856;-71.574;2022-08-23T07:21:13;21.17;;;15.88;;
52790;SDS011;41253;46.856;-71.574;2022-08-23T07:23:40;23.15;;;16.48;;
52790;SDS011;41253;46.856;-71.574;2022-08-23T07:26:08;17.80;;;14.32;;
52790;SDS011;41253;46.856;-71.574;2022-08-23T07:28:37;19.65;;;16.23;;
52790;SDS011;41253;46.856;-71.574;2022-08-23T07:31:05;21.60;;;16.60;;
52790;SDS011;41253;46.856;-71.574;2022-08-23T07:33:51;24.60;;;16.48;;
52790;SDS011;41253;46.856;-71.574;2022-08-23T07:36:20;17.00;;;14.45;;
52790;SDS011;41253;46.856;-71.574;2022-08-23T07:38:48;21.08;;;14.75;;
52790;SDS011;41253;46.856;-71.574;2022-08-23T07:41:15;19.30;;;15.05;;
52790;SDS011;41253;46.856;-71.574;2022-08-23T07:43:45;18.20;;;13.38;;
52790;SDS011;41253;46.856;-71.574;2022-08-23T07:46:11;19.38;;;14.20;;
52790;SDS011;41253;46.856;-71.574;2022-08-23T07:48:38;20.83;;;16.13;;
52790;SDS011;41253;46.856;-71.574;2022-08-23T07:51:06;22.15;;;15.07;;
52790;SDS011;41253;46.856;-71.574;2022-08-23T07:53:35;22.25;;;15.38;;
52790;SDS011;41253;46.856;-71.574;2022-08-23T07:56:05;20.02;;;14.52;;
52790;SDS011;41253;46.856;-71.574;2022-08-23T07:58:33;20.83;;;14.88;;
52790;SDS011;41253;46.856;-71.574;2022-08-23T08:01:16;19.58;;;14.48;;
52790;SDS011;41253;46.856;-71.574;2022-08-23T08:03:47;19.80;;;15.20;;
52790;SDS011;41253;46.856;-71.574;2022-08-23T08:06:21;20.73;;;13.43;;
52790;SDS011;41253;46.856;-71.574;2022-08-23T08:08:53;18.15;;;13.43;;
52790;SDS011;41253;46.856;-71.574;2022-08-23T08:11:21;25.50;;;16.10;;
52790;SDS011;41253;46.856;-71.574;2022-08-23T08:13:50;20.92;;;13.82;;
52790;SDS011;41253;46.856;-71.574;2022-08-23T08:18:57;22.10;;;15.90;;
52790;SDS011;41253;46.856;-71.574;2022-08-23T08:21:26;19.45;;;14.65;;
52790;SDS011;41253;46.856;-71.574;2022-08-23T08:23:53;19.42;;;12.57;;
52790;SDS011;41253;46.856;-71.574;2022-08-23T08:26:21;21.10;;;14.98;;
52790;SDS011;41253;46.856;-71.574;2022-08-23T08:28:49;20.50;;;14.45;;
52790;SDS011;41253;46.856;-71.574;2022-08-23T08:31:16;20.58;;;15.88;;
52790;SDS011;41253;46.856;-71.574;2022-08-23T08:33:42;20.15;;;15.55;;
52790;SDS011;41253;46.856;-71.574;2022-08-23T08:36:25;20.88;;;16.83;;
52790;SDS011;41253;46.856;-71.574;2022-08-23T08:39:10;28.17;;;17.08;;
52790;SDS011;41253;46.856;-71.574;2022-08-23T08:44:42;22.33;;;16.90;;
52790;SDS011;41253;46.856;-71.574;2022-08-23T08:52:23;26.48;;;16.75;;
52790;SDS011;41253;46.856;-71.574;2022-08-23T08:54:55;23.83;;;16.75;;
52790;SDS011;41253;46.856;-71.574;2022-08-23T08:57:28;17.70;;;14.20;;
52790;SDS011;41253;46.856;-71.574;2022-08-23T09:00:04;19.20;;;13.48;;
52790;SDS011;41253;46.856;-71.574;2022-08-23T09:02:35;19.70;;;14.32;;
52790;SDS011;41253;46.856;-71.574;2022-08-23T09:05:05;16.42;;;14.55;;
52790;SDS011;41253;46.856;-71.574;2022-08-23T09:10:27;18.02;;;12.63;;
52790;SDS011;41253;46.856;-71.574;2022-08-23T09:13:49;19.48;;;13.60;;
52790;SDS011;41253;46.856;-71.574;2022-08-23T09:19:27;14.52;;;11.63;;
52790;SDS011;41253;46.856;-71.574;2022-08-23T09:22:00;18.20;;;14.35;;
52790;SDS011;41253;46.856;-71.574;2022-08-23T09:24:51;14.38;;;11.88;;
52790;SDS011;41253;46.856;-71.574;2022-08-23T09:27:17;21.42;;;14.82;;
52790;SDS011;41253;46.856;-71.574;2022-08-23T09:29:55;15.50;;;13.52;;
52790;SDS011;41253;46.856;-71.574;2022-08-23T09:32:30;20.08;;;13.68;;
52790;SDS011;41253;46.856;-71.574;2022-08-23T09:40:46;19.80;;;15.60;;
52790;SDS011;41253;46.856;-71.574;2022-08-23T09:43:21;14.82;;;12.02;;
52790;SDS011;41253;46.856;-71.574;2022-08-23T09:48:39;27.88;;;17.25;;
52790;SDS011;41253;46.856;-71.574;2022-08-23T09:51:07;27.38;;;18.27;;
52790;SDS011;41253;46.856;-71.574;2022-08-23T09:54:07;31.08;;;19.70;;
52790;SDS011;41253;46.856;-71.574;2022-08-23T09:56:43;26.40;;;18.38;;
52790;SDS011;41253;46.856;-71.574;2022-08-23T09:59:37;28.05;;;18.08;;
52790;SDS011;41253;46.856;-71.574;2022-08-23T10:07:54;22.92;;;17.48;;
52790;SDS011;41253;46.856;-71.574;2022-08-23T10:12:56;21.90;;;15.13;;
52790;SDS011;41253;46.856;-71.574;2022-08-23T10:16:06;25.08;;;16.38;;
52790;SDS011;41253;46.856;-71.574;2022-08-23T10:21:34;20.75;;;15.38;;
52790;SDS011;41253;46.856;-71.574;2022-08-23T10:26:44;20.13;;;15.48;;
52790;SDS011;41253;46.856;-71.574;2022-08-23T10:29:49;21.08;;;16.02;;
52790;SDS011;41253;46.856;-71.574;2022-08-23T10:32:34;18.58;;;15.00;;
52790;SDS011;41253;46.856;-71.574;2022-08-23T10:43:21;18.92;;;14.43;;
52790;SDS011;41253;46.856;-71.574;2022-08-23T10:46:22;15.95;;;14.30;;
52790;SDS011;41253;46.856;-71.574;2022-08-23T10:48:54;17.10;;;14.68;;
52790;SDS011;41253;46.856;-71.574;2022-08-23T10:54:04;15.35;;;12.32;;
52790;SDS011;41253;46.856;-71.574;2022-08-23T10:56:34;15.27;;;12.40;;
52790;SDS011;41253;46.856;-71.574;2022-08-23T11:02:04;15.65;;;13.35;;
52790;SDS011;41253;46.856;-71.574;2022-08-23T11:04:55;15.63;;;13.27;;
52790;SDS011;41253;46.856;-71.574;2022-08-23T11:07:31;22.90;;;14.38;;
52790;SDS011;41253;46.856;-71.574;2022-08-23T11:12:58;18.40;;;13.52;;
52790;SDS011;41253;46.856;-71.574;2022-08-23T11:18:44;17.40;;;13.57;;
52790;SDS011;41253;46.856;-71.574;2022-08-23T11:31:38;15.18;;;12.90;;
52790;SDS011;41253;46.856;-71.574;2022-08-23T11:42:24;15.05;;;10.73;;
52790;SDS011;41253;46.856;-71.574;2022-08-23T11:48:17;15.55;;;10.65;;
52790;SDS011;41253;46.856;-71.574;2022-08-23T11:56:24;12.10;;;10.85;;
52790;SDS011;41253;46.856;-71.574;2022-08-23T12:07:51;12.38;;;8.50;;
52790;SDS011;41253;46.856;-71.574;2022-08-23T12:18:37;10.90;;;7.40;;
52790;SDS011;41253;46.856;-71.574;2022-08-23T12:23:47;13.55;;;7.93;;
52790;SDS011;41253;46.856;-71.574;2022-08-23T12:28:52;7.90;;;6.63;;
52790;SDS011;41253;46.856;-71.574;2022-08-23T12:34:05;11.45;;;8.18;;
52790;SDS011;41253;46.856;-71.574;2022-08-23T12:36:57;9.85;;;8.85;;
52790;SDS011;41253;46.856;-71.574;2022-08-23T12:39:49;8.35;;;6.60;;
52790;SDS011;41253;46.856;-71.574;2022-08-23T12:42:27;7.05;;;6.35;;
52790;SDS011;41253;46.856;-71.574;2022-08-23T12:45:13;11.48;;;7.47;;
52790;SDS011;41253;46.856;-71.574;2022-08-23T12:47:43;7.28;;;6.43;;
52790;SDS011;41253;46.856;-71.574;2022-08-23T12:50:24;8.27;;;7.47;;
52790;SDS011;41253;46.856;-71.574;2022-08-23T12:53:13;7.22;;;6.55;;
52790;SDS011;41253;46.856;-71.574;2022-08-23T12:55:42;7.65;;;6.78;;
52790;SDS011;41253;46.856;-71.574;2022-08-23T12:58:14;6.70;;;5.88;;
52790;SDS011;41253;46.856;-71.574;2022-08-23T13:00:52;8.15;;;6.68;;
52790;SDS011;41253;46.856;-71.574;2022-08-23T13:03:27;7.68;;;6.18;;
52790;SDS011;41253;46.856;-71.574;2022-08-23T13:06:12;15.10;;;9.23;;
52790;SDS011;41253;46.856;-71.574;2022-08-23T13:08:44;7.20;;;6.57;;
52790;SDS011;41253;46.856;-71.574;2022-08-23T13:11:12;6.82;;;6.13;;
52790;SDS011;41253;46.856;-71.574;2022-08-23T13:13:43;8.90;;;7.60;;
52790;SDS011;41253;46.856;-71.574;2022-08-23T13:19:15;9.23;;;7.03;;
52790;SDS011;41253;46.856;-71.574;2022-08-23T13:22:10;8.70;;;6.05;;
52790;SDS011;41253;46.856;-71.574;2022-08-23T13:27:32;7.50;;;6.40;;
52790;SDS011;41253;46.856;-71.574;2022-08-23T13:30:26;7.97;;;6.22;;
52790;SDS011;41253;46.856;-71.574;2022-08-23T13:35:34;8.57;;;6.35;;
52790;SDS011;41253;46.856;-71.574;2022-08-23T13:38:08;6.45;;;5.72;;
52790;SDS011;41253;46.856;-71.574;2022-08-23T13:46:29;6.05;;;5.45;;
52790;SDS011;41253;46.856;-71.574;2022-08-23T13:51:31;6.80;;;5.65;;
52790;SDS011;41253;46.856;-71.574;2022-08-23T13:54:02;5.63;;;5.13;;
52790;SDS011;41253;46.856;-71.574;2022-08-23T13:56:33;5.75;;;4.97;;
52790;SDS011;41253;46.856;-71.574;2022-08-23T13:59:18;5.13;;;4.72;;
52790;SDS011;41253;46.856;-71.574;2022-08-23T14:01:57;8.73;;;5.30;;
52790;SDS011;41253;46.856;-71.574;2022-08-23T14:04:25;6.97;;;5.35;;
52790;SDS011;41253;46.856;-71.574;2022-08-23T14:06:51;5.55;;;5.03;;
52790;SDS011;41253;46.856;-71.574;2022-08-23T14:09:18;8.18;;;5.07;;
52790;SDS011;41253;46.856;-71.574;2022-08-23T14:11:44;7.82;;;4.60;;
52790;SDS011;41253;46.856;-71.574;2022-08-23T14:14:15;5.80;;;4.70;;
52790;SDS011;41253;46.856;-71.574;2022-08-23T14:16:41;5.30;;;4.80;;
52790;SDS011;41253;46.856;-71.574;2022-08-23T14:19:09;5.95;;;5.25;;
52790;SDS011;41253;46.856;-71.574;2022-08-23T14:21:36;5.80;;;5.30;;
52790;SDS011;41253;46.856;-71.574;2022-08-23T14:24:03;5.45;;;4.60;;
52790;SDS011;41253;46.856;-71.574;2022-08-23T14:26:29;6.47;;;5.43;;
52790;SDS011;41253;46.856;-71.574;2022-08-23T14:28:55;7.72;;;6.88;;
52790;SDS011;41253;46.856;-71.574;2022-08-23T14:31:22;8.07;;;5.15;;
52790;SDS011;41253;46.856;-71.574;2022-08-23T14:33:48;7.28;;;5.00;;
52790;SDS011;41253;46.856;-71.574;2022-08-23T14:36:15;7.75;;;5.20;;
52790;SDS011;41253;46.856;-71.574;2022-08-23T14:38:41;5.88;;;5.32;;
52790;SDS011;41253;46.856;-71.574;2022-08-23T14:41:09;6.15;;;4.63;;
52790;SDS011;41253;46.856;-71.574;2022-08-23T14:43:38;5.10;;;4.60;;
52790;SDS011;41253;46.856;-71.574;2022-08-23T14:46:04;5.70;;;5.20;;
52790;SDS011;41253;46.856;-71.574;2022-08-23T14:48:30;6.78;;;5.75;;
52790;SDS011;41253;46.856;-71.574;2022-08-23T14:50:57;6.32;;;5.10;;
52790;SDS011;41253;46.856;-71.574;2022-08-23T14:53:26;7.20;;;5.38;;
52790;SDS011;41253;46.856;-71.574;2022-08-23T14:55:54;5.68;;;5.18;;
52790;SDS011;41253;46.856;-71.574;2022-08-23T14:58:22;7.45;;;5.85;;
52790;SDS011;41253;46.856;-71.574;2022-08-23T15:00:49;5.95;;;5.35;;
52790;SDS011;41253;46.856;-71.574;2022-08-23T15:03:18;6.30;;;5.30;;
52790;SDS011;41253;46.856;-71.574;2022-08-23T15:05:50;6.18;;;4.70;;
52790;SDS011;41253;46.856;-71.574;2022-08-23T15:08:17;5.47;;;4.50;;
52790;SDS011;41253;46.856;-71.574;2022-08-23T15:10:45;7.25;;;4.97;;
52790;SDS011;41253;46.856;-71.574;2022-08-23T15:13:11;5.57;;;4.68;;
52790;SDS011;41253;46.856;-71.574;2022-08-23T15:15:38;7.00;;;5.13;;
52790;SDS011;41253;46.856;-71.574;2022-08-23T15:18:06;5.63;;;4.97;;
52790;SDS011;41253;46.856;-71.574;2022-08-23T15:20:36;6.60;;;5.10;;
52790;SDS011;41253;46.856;-71.574;2022-08-23T15:23:04;5.60;;;5.10;;
52790;SDS011;41253;46.856;-71.574;2022-08-23T15:25:33;5.80;;;5.30;;
52790;SDS011;41253;46.856;-71.574;2022-08-23T15:28:01;5.53;;;4.97;;
52790;SDS011;41253;46.856;-71.574;2022-08-23T15:30:29;5.07;;;4.68;;
52790;SDS011;41253;46.856;-71.574;2022-08-23T15:32:56;5.38;;;4.93;;
52790;SDS011;41253;46.856;-71.574;2022-08-23T15:35:23;5.72;;;5.13;;
52790;SDS011;41253;46.856;-71.574;2022-08-23T15:37:51;5.70;;;5.05;;
52790;SDS011;41253;46.856;-71.574;2022-08-23T15:40:19;5.55;;;5.03;;
52790;SDS011;41253;46.856;-71.574;2022-08-23T15:42:45;5.70;;;5.20;;
52790;SDS011;41253;46.856;-71.574;2022-08-23T15:45:11;5.03;;;4.63;;
52790;SDS011;41253;46.856;-71.574;2022-08-23T15:50:13;5.35;;;4.95;;
52790;SDS011;41253;46.856;-71.574;2022-08-23T15:52:41;8.63;;;5.88;;
52790;SDS011;41253;46.856;-71.574;2022-08-23T15:55:07;6.35;;;5.75;;
52790;SDS011;41253;46.856;-71.574;2022-08-23T15:57:39;6.25;;;5.65;;
52790;SDS011;41253;46.856;-71.574;2022-08-23T16:00:09;7.85;;;5.85;;
52790;SDS011;41253;46.856;-71.574;2022-08-23T16:02:36;5.95;;;4.88;;
52790;SDS011;41253;46.856;-71.574;2022-08-23T16:05:03;5.97;;;5.45;;
52790;SDS011;41253;46.856;-71.574;2022-08-23T16:07:30;6.13;;;5.40;;
52790;SDS011;41253;46.856;-71.574;2022-08-23T16:09:58;6.40;;;4.53;;
52790;SDS011;41253;46.856;-71.574;2022-08-23T16:12:26;7.95;;;5.03;;
52790;SDS011;41253;46.856;-71.574;2022-08-23T16:14:52;5.80;;;5.20;;
52790;SDS011;41253;46.856;-71.574;2022-08-23T16:17:19;5.95;;;4.32;;
52790;SDS011;41253;46.856;-71.574;2022-08-23T16:19:46;7.07;;;5.80;;
52790;SDS011;41253;46.856;-71.574;2022-08-23T16:22:13;5.85;;;4.85;;
52790;SDS011;41253;46.856;-71.574;2022-08-23T16:24:40;6.53;;;5.20;;
52790;SDS011;41253;46.856;-71.574;2022-08-23T16:27:06;5.68;;;5.10;;
52790;SDS011;41253;46.856;-71.574;2022-08-23T16:29:33;6.05;;;4.85;;
52790;SDS011;41253;46.856;-71.574;2022-08-23T16:32:01;5.95;;;5.45;;
52790;SDS011;41253;46.856;-71.574;2022-08-23T16:34:28;6.10;;;5.05;;
52790;SDS011;41253;46.856;-71.574;2022-08-23T16:36:56;5.80;;;5.05;;
52790;SDS011;41253;46.856;-71.574;2022-08-23T16:39:26;5.45;;;4.95;;
52790;SDS011;41253;46.856;-71.574;2022-08-23T16:41:53;6.95;;;5.35;;
52790;SDS011;41253;46.856;-71.574;2022-08-23T16:44:20;6.63;;;4.97;;
52790;SDS011;41253;46.856;-71.574;2022-08-23T16:46:46;5.88;;;5.28;;
52790;SDS011;41253;46.856;-71.574;2022-08-23T16:49:14;6.78;;;5.47;;
52790;SDS011;41253;46.856;-71.574;2022-08-23T16:51:41;5.75;;;5.13;;